createdAt,value
2019-01-20T00:01:17.513Z,-3.13
2019-01-20T00:03:47.966Z,-3.22
2019-01-20T00:06:19.304Z,-3.19
2019-01-20T00:09:23.821Z,-3.19
2019-01-20T00:12:11.580Z,-3.16
2019-01-20T00:14:59.477Z,-3.19
2019-01-20T00:17:47.455Z,-3.27
2019-01-20T00:20:34.974Z,-3.27
2019-01-20T00:23:25.802Z,-3.27
2019-01-20T00:26:13.949Z,-3.28
2019-01-20T00:29:01.942Z,-3.28
2019-01-20T00:31:50.025Z,-3.32
2019-01-20T00:34:19.887Z,-3.36
2019-01-20T00:36:52.292Z,-3.39
2019-01-20T00:39:23.360Z,-3.41
2019-01-20T00:41:52.624Z,-3.43
2019-01-20T00:44:22.320Z,-3.41
2019-01-20T00:46:52.978Z,-3.43
2019-01-20T00:49:22.916Z,-3.43
2019-01-20T00:51:52.209Z,-3.47
2019-01-20T00:54:24.088Z,-3.50
2019-01-20T00:56:56.718Z,-3.54
2019-01-20T00:59:29.470Z,-3.54
2019-01-20T01:02:02.777Z,-3.54
2019-01-20T01:04:32.654Z,-3.52
2019-01-20T01:07:02.876Z,-3.50
2019-01-20T01:09:32.998Z,-3.54
2019-01-20T01:12:07.208Z,-3.55
2019-01-20T01:14:36.887Z,-3.57
2019-01-20T01:17:06.580Z,-3.51
2019-01-20T01:19:36.876Z,-3.50
2019-01-20T01:22:06.511Z,-3.50
2019-01-20T01:24:36.814Z,-3.50
2019-01-20T01:27:06.265Z,-3.49
2019-01-20T01:29:36.067Z,-3.53
2019-01-20T01:32:05.956Z,-3.60
2019-01-20T01:34:36.383Z,-3.60
2019-01-20T01:37:06.170Z,-3.62
2019-01-20T01:39:36.366Z,-3.66
2019-01-20T01:42:10.965Z,-3.66
2019-01-20T01:44:40.390Z,-3.73
2019-01-20T01:47:09.881Z,-3.73
2019-01-20T01:49:39.211Z,-3.77
2019-01-20T01:52:09.250Z,-3.77
2019-01-20T01:54:39.664Z,-3.85
2019-01-20T01:57:09.706Z,-3.89
2019-01-20T01:59:39.601Z,-3.93
2019-01-20T02:02:09.627Z,-3.97
2019-01-20T02:04:39.973Z,-3.96
2019-01-20T02:07:09.512Z,-4.00
2019-01-20T02:09:38.801Z,-4.01
2019-01-20T02:12:11.387Z,-4.00
2019-01-20T02:14:41.454Z,-3.98
2019-01-20T02:17:11.708Z,-4.03
2019-01-20T02:19:42.162Z,-4.05
2019-01-20T02:22:11.740Z,-4.12
2019-01-20T02:24:41.335Z,-4.11
2019-01-20T02:27:11.473Z,-4.08
2019-01-20T02:29:40.806Z,-4.04
2019-01-20T02:32:11.524Z,-4.08
2019-01-20T02:34:41.076Z,-4.10
2019-01-20T02:37:10.673Z,-4.13
2019-01-20T02:39:40.169Z,-4.17
2019-01-20T02:42:09.659Z,-4.22
2019-01-20T02:44:38.978Z,-4.16
2019-01-20T02:47:09.645Z,-4.20
2019-01-20T02:49:39.934Z,-4.16
2019-01-20T02:52:09.372Z,-4.13
2019-01-20T02:54:39.583Z,-4.12
2019-01-20T02:57:09.909Z,-4.16
2019-01-20T02:59:39.517Z,-4.08
2019-01-20T03:02:09.597Z,-4.11
2019-01-20T03:04:39.044Z,-4.10
2019-01-20T03:07:08.378Z,-4.08
2019-01-20T03:09:39.749Z,-4.12
2019-01-20T03:12:09.478Z,-4.13
2019-01-20T03:14:38.777Z,-4.17
2019-01-20T03:17:07.997Z,-4.24
2019-01-20T03:19:39.113Z,-4.26
2019-01-20T03:22:08.785Z,-4.29
2019-01-20T03:24:41.140Z,-4.25
2019-01-20T03:27:11.366Z,-4.29
2019-01-20T03:29:40.773Z,-4.34
2019-01-20T03:32:10.792Z,-4.31
2019-01-20T03:34:40.329Z,-4.34
2019-01-20T03:37:09.902Z,-4.39
2019-01-20T03:39:39.708Z,-4.39
2019-01-20T03:42:12.134Z,-4.53
2019-01-20T03:44:42.295Z,-4.62
2019-01-20T03:47:11.844Z,-4.67
2019-01-20T03:49:41.595Z,-4.75
2019-01-20T03:52:10.987Z,-4.74
2019-01-20T03:54:41.357Z,-4.67
2019-01-20T03:57:11.331Z,-4.69
2019-01-20T03:59:41.697Z,-4.59
2019-01-20T04:02:11.881Z,-4.61
2019-01-20T04:04:41.593Z,-4.66
2019-01-20T04:07:11.190Z,-4.60
2019-01-20T04:09:40.620Z,-4.56
2019-01-20T04:12:09.963Z,-4.59
2019-01-20T04:14:39.255Z,-4.64
2019-01-20T04:17:08.788Z,-4.59
2019-01-20T04:19:39.211Z,-4.59
2019-01-20T04:22:08.679Z,-4.51
2019-01-20T04:24:38.075Z,-4.51
2019-01-20T04:27:09.193Z,-4.50
2019-01-20T04:29:39.289Z,-4.58
2019-01-20T04:32:09.384Z,-4.57
2019-01-20T04:34:40.206Z,-4.59
2019-01-20T04:37:09.907Z,-4.55
2019-01-20T04:39:39.277Z,-4.62
2019-01-20T04:42:10.428Z,-4.63
2019-01-20T04:44:40.976Z,-4.68
2019-01-20T04:47:10.489Z,-4.68
2019-01-20T04:49:40.145Z,-4.59
2019-01-20T04:52:11.060Z,-4.63
2019-01-20T04:54:40.700Z,-4.63
2019-01-20T04:57:10.624Z,-4.61
2019-01-20T04:59:40.640Z,-4.64
2019-01-20T05:02:10.513Z,-4.61
2019-01-20T05:04:39.847Z,-4.68
2019-01-20T05:07:10.285Z,-4.57
2019-01-20T05:09:40.614Z,-4.55
2019-01-20T05:12:09.951Z,-4.60
2019-01-20T05:14:39.644Z,-4.60
2019-01-20T05:17:09.113Z,-4.53
2019-01-20T05:19:39.806Z,-4.52
2019-01-20T05:22:09.354Z,-4.54
2019-01-20T05:24:39.038Z,-4.42
2019-01-20T05:27:08.583Z,-4.44
2019-01-20T05:29:38.271Z,-4.44
2019-01-20T05:32:07.526Z,-4.44
2019-01-20T05:34:36.811Z,-4.47
2019-01-20T05:37:06.619Z,-4.46
2019-01-20T05:39:36.530Z,-4.55
2019-01-20T05:42:06.088Z,-4.54
2019-01-20T05:44:35.418Z,-4.51
2019-01-20T05:47:05.303Z,-4.49
2019-01-20T05:49:35.553Z,-4.53
2019-01-20T05:52:05.151Z,-4.54
2019-01-20T05:54:35.118Z,-4.59
2019-01-20T05:57:04.603Z,-4.76
2019-01-20T05:59:33.951Z,-4.80
2019-01-20T06:02:03.202Z,-4.80
2019-01-20T06:04:34.248Z,-4.81
2019-01-20T06:07:04.024Z,-4.87
2019-01-20T06:09:33.469Z,-5.07
2019-01-20T06:12:02.882Z,-4.98
2019-01-20T06:14:33.873Z,-4.83
2019-01-20T06:17:03.170Z,-4.90
2019-01-20T06:19:33.362Z,-4.95
2019-01-20T06:22:03.002Z,-5.05
2019-01-20T06:24:33.367Z,-5.14
2019-01-20T06:27:02.944Z,-5.11
2019-01-20T06:29:33.614Z,-5.29
2019-01-20T06:32:03.613Z,-5.22
2019-01-20T06:34:33.069Z,-5.30
2019-01-20T06:37:02.348Z,-5.46
2019-01-20T06:39:32.273Z,-5.62
2019-01-20T06:42:02.503Z,-5.73
2019-01-20T06:44:31.787Z,-5.89
2019-01-20T06:47:01.257Z,-5.93
2019-01-20T06:49:32.206Z,-5.92
2019-01-20T06:52:01.619Z,-5.96
2019-01-20T06:54:31.509Z,-5.83
2019-01-20T06:57:00.879Z,-5.86
2019-01-20T06:59:30.211Z,-5.94
2019-01-20T07:02:00.281Z,-5.97
2019-01-20T07:04:29.567Z,-5.85
2019-01-20T07:06:59.103Z,-5.73
2019-01-20T07:09:28.829Z,-5.67
2019-01-20T07:11:58.448Z,-5.50
2019-01-20T07:14:27.763Z,-5.41
2019-01-20T07:16:58.924Z,-5.46
2019-01-20T07:19:30.021Z,-5.51
2019-01-20T07:22:00.658Z,-5.52
2019-01-20T07:24:30.286Z,-5.49
2019-01-20T07:27:00.174Z,-5.53
2019-01-20T07:29:30.146Z,-5.52
2019-01-20T07:31:59.466Z,-5.56
2019-01-20T07:34:28.790Z,-5.53
2019-01-20T07:36:58.669Z,-5.55
2019-01-20T07:39:28.024Z,-5.52
2019-01-20T07:41:57.809Z,-5.55
2019-01-20T07:44:27.042Z,-5.50
2019-01-20T07:46:56.831Z,-5.45
2019-01-20T07:49:28.006Z,-5.46
2019-01-20T07:51:57.568Z,-5.51
2019-01-20T07:54:28.947Z,-5.36
2019-01-20T07:56:59.589Z,-5.32
2019-01-20T07:59:29.160Z,-5.26
2019-01-20T08:01:59.585Z,-5.25
2019-01-20T08:04:28.879Z,-5.22
2019-01-20T08:06:58.186Z,-5.19
2019-01-20T08:09:28.187Z,-5.04
2019-01-20T08:11:57.834Z,-5.06
2019-01-20T08:14:27.897Z,-5.00
2019-01-20T08:16:57.233Z,-4.93
2019-01-20T08:19:31.240Z,-4.80
2019-01-20T08:22:02.420Z,-4.90
2019-01-20T08:24:32.046Z,-4.76
2019-01-20T08:27:01.532Z,-4.65
2019-01-20T08:29:31.319Z,-2.65
2019-01-20T08:32:01.701Z,-1.98
2019-01-20T08:34:34.205Z,-2.11
2019-01-20T08:37:05.521Z,-1.91
2019-01-20T08:39:40.680Z,-1.93
2019-01-20T08:42:10.061Z,-1.67
2019-01-20T08:44:42.689Z,-1.91
2019-01-20T08:47:28.754Z,-1.88
2019-01-20T08:49:58.768Z,-2.11
2019-01-20T08:52:30.641Z,-2.31
2019-01-20T08:55:02.682Z,-2.03
2019-01-20T08:57:38.407Z,-2.28
2019-01-20T09:00:12.374Z,-2.29
2019-01-20T09:02:42.174Z,-2.38
2019-01-20T09:05:12.470Z,-2.68
2019-01-20T09:07:41.995Z,-2.32
2019-01-20T09:10:20.366Z,-2.47
2019-01-20T09:12:50.344Z,-2.69
2019-01-20T09:15:20.331Z,-2.47
2019-01-20T09:17:49.949Z,-2.67
2019-01-20T09:20:19.884Z,-2.66
2019-01-20T09:22:49.238Z,-2.38
2019-01-20T09:25:20.194Z,-2.02
2019-01-20T09:27:51.480Z,-2.39
2019-01-20T09:30:22.140Z,-2.33
2019-01-20T09:32:54.972Z,-2.33
2019-01-20T09:35:24.453Z,-2.13
2019-01-20T09:37:55.525Z,-2.25
2019-01-20T09:40:28.277Z,-2.22
2019-01-20T09:42:57.863Z,-2.15
2019-01-20T09:45:31.253Z,-1.94
2019-01-20T09:48:01.182Z,-1.78
2019-01-20T09:50:30.779Z,-1.58
2019-01-20T09:53:02.495Z,-1.24
2019-01-20T09:55:33.278Z,-1.32
2019-01-20T09:58:06.344Z,-1.56
2019-01-20T10:00:35.634Z,-1.40
2019-01-20T10:03:16.352Z,-1.20
2019-01-20T10:05:49.489Z,-0.58
2019-01-20T10:08:18.960Z,-0.10
2019-01-20T10:10:49.611Z,-0.26
2019-01-20T10:13:19.772Z,-0.31
2019-01-20T10:15:52.167Z,0.25
2019-01-20T10:18:23.615Z,0.25
2019-01-20T10:20:53.307Z,0.29
2019-01-20T10:23:22.821Z,0.69
2019-01-20T10:25:55.412Z,1.74
2019-01-20T10:28:26.733Z,1.63
2019-01-20T10:30:56.687Z,1.63
2019-01-20T10:33:26.010Z,2.23
2019-01-20T10:36:03.664Z,2.23
2019-01-20T10:38:37.459Z,2.17
2019-01-20T10:41:08.963Z,2.85
2019-01-20T10:43:41.152Z,2.19
2019-01-20T10:46:10.925Z,1.06
2019-01-20T10:48:41.175Z,1.25
2019-01-20T10:51:14.924Z,1.25
2019-01-20T10:53:45.069Z,1.63
2019-01-20T10:56:15.386Z,2.38
2019-01-20T10:58:49.926Z,2.63
2019-01-20T11:01:22.515Z,2.91
2019-01-20T11:03:52.984Z,3.71
2019-01-20T11:06:24.254Z,4.04
2019-01-20T11:08:54.206Z,2.47
2019-01-20T11:11:25.123Z,2.63
2019-01-20T11:13:54.470Z,2.85
2019-01-20T11:16:24.066Z,3.84
2019-01-20T11:18:57.969Z,1.78
2019-01-20T11:21:32.027Z,2.21
2019-01-20T11:24:03.613Z,1.93
2019-01-20T11:26:33.054Z,3.33
2019-01-20T11:29:04.385Z,3.49
2019-01-20T11:31:42.420Z,2.08
2019-01-20T11:34:12.623Z,2.45
2019-01-20T11:36:42.261Z,3.35
2019-01-20T11:39:22.735Z,2.76
2019-01-20T11:41:53.241Z,2.38
2019-01-20T11:44:22.636Z,1.84
2019-01-20T11:46:53.059Z,2.33
2019-01-20T11:49:23.495Z,1.78
2019-01-20T11:51:54.315Z,1.20
2019-01-20T11:54:23.806Z,1.69
2019-01-20T11:56:54.734Z,1.57
2019-01-20T11:59:23.983Z,1.66
2019-01-20T12:01:55.683Z,1.95
2019-01-20T12:04:30.831Z,1.85
2019-01-20T12:07:22.716Z,1.96
2019-01-20T12:09:55.588Z,1.63
2019-01-20T12:12:27.027Z,2.69
2019-01-20T12:14:56.931Z,2.35
2019-01-20T12:17:30.486Z,2.35
2019-01-20T12:20:00.415Z,2.34
2019-01-20T12:22:37.727Z,2.03
2019-01-20T12:25:13.031Z,1.98
2019-01-20T12:27:57.025Z,2.73
2019-01-20T12:30:31.961Z,2.75
2019-01-20T12:33:02.361Z,2.49
2019-01-20T12:35:33.009Z,2.84
2019-01-20T12:38:04.371Z,2.71
2019-01-20T12:40:44.885Z,3.12
2019-01-20T12:43:16.265Z,3.26
2019-01-20T12:45:46.530Z,3.99
2019-01-20T12:48:17.658Z,4.52
2019-01-20T12:50:50.904Z,3.51
2019-01-20T12:53:24.234Z,4.18
2019-01-20T12:55:54.996Z,3.65
2019-01-20T12:58:26.415Z,3.85
2019-01-20T13:00:57.370Z,3.51
2019-01-20T13:03:29.474Z,3.44
2019-01-20T13:05:59.727Z,5.39
2019-01-20T13:08:29.284Z,3.10
2019-01-20T13:10:59.038Z,4.53
2019-01-20T13:13:28.611Z,3.55
2019-01-20T13:15:58.591Z,4.20
2019-01-20T13:18:31.730Z,3.35
2019-01-20T13:21:01.507Z,3.43
2019-01-20T13:23:32.320Z,2.93
2019-01-20T13:26:01.745Z,2.69
2019-01-20T13:28:31.869Z,2.59
2019-01-20T13:31:01.808Z,4.49
2019-01-20T13:33:31.234Z,3.22
2019-01-20T13:36:07.154Z,2.90
2019-01-20T13:38:34.674Z,2.95
2019-01-20T13:41:27.265Z,3.88
2019-01-20T13:43:57.812Z,3.61
2019-01-20T13:46:27.671Z,3.61
2019-01-20T13:48:56.951Z,4.22
2019-01-20T13:51:28.234Z,3.51
2019-01-20T13:54:01.874Z,5.61
2019-01-20T13:56:32.331Z,4.14
2019-01-20T13:59:04.504Z,3.97
2019-01-20T14:01:36.647Z,4.53
2019-01-20T14:04:07.766Z,5.29
2019-01-20T14:06:39.888Z,3.42
2019-01-20T14:09:10.999Z,4.97
2019-01-20T14:11:45.457Z,5.27
2019-01-20T14:14:17.628Z,6.46
2019-01-20T14:16:46.886Z,4.13
2019-01-20T14:19:21.688Z,5.20
2019-01-20T14:21:51.307Z,5.99
2019-01-20T14:24:21.005Z,6.59
2019-01-20T14:26:52.900Z,4.44
2019-01-20T14:29:23.160Z,4.72
2019-01-20T14:31:54.063Z,5.72
2019-01-20T14:34:23.919Z,3.74
2019-01-20T14:36:56.128Z,4.54
2019-01-20T14:39:28.142Z,5.71
2019-01-20T14:41:57.610Z,5.60
2019-01-20T14:44:27.593Z,5.07
2019-01-20T14:46:56.869Z,5.47
2019-01-20T14:49:27.484Z,5.16
2019-01-20T14:51:57.305Z,5.40
2019-01-20T14:54:30.652Z,5.08
2019-01-20T14:57:01.786Z,5.11
2019-01-20T14:59:31.843Z,4.79
2019-01-20T15:02:01.709Z,4.74
2019-01-20T15:04:36.603Z,4.39
2019-01-20T15:07:07.021Z,4.62
2019-01-20T15:09:37.008Z,3.56
2019-01-20T15:12:13.410Z,2.45
2019-01-20T15:14:46.241Z,1.91
2019-01-20T15:17:17.347Z,2.16
2019-01-20T15:19:46.627Z,2.11
2019-01-20T15:22:22.043Z,1.89
2019-01-20T15:24:52.668Z,1.55
2019-01-20T15:27:22.320Z,1.32
2019-01-20T15:29:52.559Z,1.12
2019-01-20T15:34:58.201Z,0.92
2019-01-20T15:37:35.229Z,0.80
2019-01-20T15:40:15.033Z,0.64
2019-01-20T15:42:46.022Z,0.68
2019-01-20T15:45:17.089Z,0.68
2019-01-20T15:47:46.643Z,0.66
2019-01-20T15:50:20.309Z,0.66
2019-01-20T15:52:49.682Z,0.59
2019-01-20T15:55:26.478Z,0.43
2019-01-20T15:57:57.318Z,0.31
2019-01-20T16:00:33.638Z,0.10
2019-01-20T16:03:05.904Z,0.10
2019-01-20T16:05:35.383Z,0.07
2019-01-20T16:08:18.630Z,0.01
2019-01-20T16:10:56.098Z,-0.14
2019-01-20T16:13:43.625Z,-0.31
2019-01-20T16:16:17.220Z,-0.35
2019-01-20T16:18:46.934Z,-0.48
2019-01-20T16:21:20.063Z,-0.63
2019-01-20T16:23:51.217Z,-0.71
2019-01-20T16:26:20.685Z,-0.52
2019-01-20T16:28:53.589Z,-0.57
2019-01-20T16:31:28.387Z,-0.67
2019-01-20T16:34:00.627Z,-0.79
2019-01-20T16:36:33.527Z,-0.92
2019-01-20T16:39:07.905Z,-1.01
2019-01-20T16:41:38.578Z,-0.96
2019-01-20T16:44:08.596Z,-0.94
2019-01-20T16:46:52.371Z,-0.88
2019-01-20T16:49:22.842Z,-0.84
2019-01-20T16:51:54.515Z,-0.84
2019-01-20T16:54:26.941Z,-0.93
2019-01-20T16:57:05.848Z,-1.15
2019-01-20T16:59:35.780Z,-0.98
2019-01-20T17:02:05.576Z,-0.89
2019-01-20T17:04:36.264Z,-1.03
2019-01-20T17:07:13.260Z,-1.05
2019-01-20T17:09:46.340Z,-0.90
2019-01-20T17:12:16.495Z,-0.96
2019-01-20T17:14:45.728Z,-1.07
2019-01-20T17:17:17.755Z,-1.13
2019-01-20T17:19:50.318Z,-1.07
2019-01-20T17:22:21.110Z,-1.17
2019-01-20T17:24:51.403Z,-1.31
2019-01-20T17:27:22.864Z,-1.40
2019-01-20T17:29:52.160Z,-1.31
2019-01-20T17:32:21.555Z,-1.23
2019-01-20T17:34:53.816Z,-1.16
2019-01-20T17:37:23.063Z,-1.31
2019-01-20T17:39:52.687Z,-1.38
2019-01-20T17:42:27.765Z,-1.42
2019-01-20T17:45:00.427Z,-1.42
2019-01-20T17:47:30.090Z,-1.53
2019-01-20T17:50:02.600Z,-1.45
2019-01-20T17:52:32.312Z,-1.48
2019-01-20T17:55:02.823Z,-1.51
2019-01-20T17:57:34.394Z,-1.53
2019-01-20T18:00:08.853Z,-1.53
2019-01-20T18:02:39.171Z,-1.60
2019-01-20T18:05:09.495Z,-1.51
2019-01-20T18:07:38.802Z,-1.67
2019-01-20T18:10:10.192Z,-1.67
2019-01-20T18:12:45.365Z,-1.57
2019-01-20T18:15:16.516Z,-1.61
2019-01-20T18:17:46.749Z,-1.51
2019-01-20T18:20:23.177Z,-1.55
2019-01-20T18:22:55.555Z,-1.50
2019-01-20T18:25:25.548Z,-1.50
2019-01-20T18:27:56.026Z,-1.42
2019-01-20T18:30:33.913Z,-1.49
2019-01-20T18:33:03.908Z,-1.53
2019-01-20T18:35:34.374Z,-1.57
2019-01-20T18:38:04.353Z,-1.54
2019-01-20T18:40:34.085Z,-1.53
2019-01-20T18:43:04.644Z,-1.60
2019-01-20T18:45:35.619Z,-1.58
2019-01-20T18:48:07.900Z,-1.56
2019-01-20T18:50:40.164Z,-1.60
2019-01-20T18:53:10.664Z,-1.66
2019-01-20T18:55:44.476Z,-1.62
2019-01-20T18:58:18.244Z,-1.74
2019-01-20T19:00:54.584Z,-1.72
2019-01-20T19:03:28.557Z,-1.78
2019-01-20T19:05:58.577Z,-1.82
2019-01-20T19:08:28.761Z,-1.79
2019-01-20T19:10:59.085Z,-1.81
2019-01-20T19:13:33.191Z,-1.79
2019-01-20T19:16:08.871Z,-1.87
2019-01-20T19:18:37.205Z,-1.88
2019-01-20T19:21:07.033Z,-1.88
2019-01-20T19:23:40.718Z,-1.90
2019-01-20T19:26:11.158Z,-1.96
2019-01-20T19:29:02.949Z,-1.99
2019-01-20T19:31:31.141Z,-2.01
2019-01-20T19:34:04.515Z,-1.99
2019-01-20T19:36:34.249Z,-2.09
2019-01-20T19:39:07.783Z,-2.01
2019-01-20T19:41:41.270Z,-2.08
2019-01-20T19:44:12.733Z,-2.11
2019-01-20T19:46:42.028Z,-2.15
2019-01-20T19:49:11.846Z,-2.17
2019-01-20T19:51:44.643Z,-2.20
2019-01-20T19:54:15.791Z,-2.16
2019-01-20T19:56:46.161Z,-2.20
2019-01-20T19:59:19.009Z,-2.23
2019-01-20T20:01:52.084Z,-2.20
2019-01-20T20:04:24.765Z,-2.22
2019-01-20T20:06:55.866Z,-2.24
2019-01-20T20:09:26.466Z,-2.25
2019-01-20T20:11:58.555Z,-2.32
2019-01-20T20:14:28.334Z,-2.32
2019-01-20T20:16:59.494Z,-2.35
2019-01-20T20:19:30.681Z,-2.38
2019-01-20T20:22:00.604Z,-2.34
2019-01-20T20:24:32.115Z,-2.39
2019-01-20T20:27:02.525Z,-2.42
2019-01-20T20:29:42.596Z,-2.45
2019-01-20T20:32:18.789Z,-2.45
2019-01-20T20:34:48.808Z,-2.54
2019-01-20T20:37:18.585Z,-2.55
2019-01-20T20:39:49.662Z,-2.52
2019-01-20T20:42:19.243Z,-2.61
2019-01-20T20:44:56.778Z,-2.65
2019-01-20T20:47:26.328Z,-2.73
2019-01-20T20:50:01.480Z,-2.70
2019-01-20T20:52:46.042Z,-2.70
2019-01-20T20:55:20.636Z,-2.75
2019-01-20T20:57:59.603Z,-2.82
2019-01-20T21:00:32.135Z,-2.82
2019-01-20T21:03:03.433Z,-2.80
2019-01-20T21:05:32.573Z,-2.82
2019-01-20T21:08:02.139Z,-2.84
2019-01-20T21:10:38.056Z,-2.90
2019-01-20T21:13:07.891Z,-2.92
2019-01-20T21:15:37.506Z,-2.95
2019-01-20T21:18:06.719Z,-2.98
2019-01-20T21:20:43.785Z,-2.98
2019-01-20T21:23:13.550Z,-2.98
2019-01-20T21:25:47.331Z,-3.06
2019-01-20T21:28:17.207Z,-3.13
2019-01-20T21:30:54.036Z,-3.15
2019-01-20T21:33:27.307Z,-3.14
2019-01-20T21:36:01.581Z,-3.16
2019-01-20T21:38:34.843Z,-3.16
2019-01-20T21:41:04.581Z,-3.19
2019-01-20T21:43:35.668Z,-3.19
2019-01-20T21:46:05.900Z,-3.21
2019-01-20T21:48:39.634Z,-3.16
2019-01-20T21:51:11.746Z,-3.20
2019-01-20T21:53:42.579Z,-3.25
2019-01-20T21:56:13.644Z,-3.31
2019-01-20T21:58:48.342Z,-3.30
2019-01-20T22:01:19.558Z,-3.22
2019-01-20T22:03:57.797Z,-3.20
2019-01-20T22:06:27.808Z,-3.25
2019-01-20T22:08:57.772Z,-3.21
2019-01-20T22:11:28.572Z,-3.23
2019-01-20T22:14:01.383Z,-3.28
2019-01-20T22:16:34.971Z,-3.30
2019-01-20T22:19:06.097Z,-3.29
2019-01-20T22:21:37.602Z,-3.36
2019-01-20T22:24:15.354Z,-3.40
2019-01-20T22:26:44.620Z,-3.45
2019-01-20T22:29:16.869Z,-3.57
2019-01-20T22:31:46.519Z,-3.62
2019-01-20T22:34:16.243Z,-3.66
2019-01-20T22:36:50.452Z,-3.76
2019-01-20T22:39:20.166Z,-3.95
2019-01-20T22:41:50.052Z,-4.12
2019-01-20T22:44:20.786Z,-4.34
2019-01-20T22:46:50.332Z,-4.32
2019-01-20T22:49:20.094Z,-4.15
2019-01-20T22:51:53.926Z,-4.01
2019-01-20T22:54:27.941Z,-3.89
2019-01-20T22:57:02.725Z,-3.89
2019-01-20T22:59:33.385Z,-3.82
2019-01-20T23:02:06.883Z,-3.92
2019-01-20T23:04:37.986Z,-4.06
2019-01-20T23:07:08.031Z,-4.07
2019-01-20T23:09:43.288Z,-4.03
2019-01-20T23:12:12.652Z,-3.91
2019-01-20T23:14:42.429Z,-3.76
2019-01-20T23:17:12.711Z,-3.68
2019-01-20T23:19:42.438Z,-3.72
2019-01-20T23:22:11.690Z,-3.76
2019-01-20T23:24:41.661Z,-3.74
2019-01-20T23:27:11.245Z,-3.77
2019-01-20T23:29:41.318Z,-3.82
2019-01-20T23:32:11.710Z,-3.97
2019-01-20T23:34:44.717Z,-3.94
2019-01-20T23:37:16.907Z,-3.84
2019-01-20T23:39:46.659Z,-3.96
2019-01-20T23:42:15.978Z,-3.87
2019-01-20T23:44:46.367Z,-3.87
2019-01-20T23:47:16.547Z,-3.83
2019-01-20T23:49:45.912Z,-3.77
2019-01-20T23:52:15.159Z,-3.72
2019-01-20T23:54:44.975Z,-3.74
2019-01-20T23:57:18.596Z,-3.74
2019-01-20T23:59:47.888Z,-3.75
